Time;durP1;ratioP1;P1;durP2;ratioP2;P2;SDS_P1;SDS_P2;PMS_P1;PMS_P2;Temp;Humidity;BMP_temperature;BMP_pressure;BME280_temperature;BME280_humidity;BME280_pressure;Samples;Min_cycle;Max_cycle;Signal;HPM_P1;HPM_P2
2021/08/22 00:00:06;;;;;;;17.73;7.32;;;16.20;99.90;;;16.03;100.00;101656.25;4202154;28;20029;-76
2021/08/22 00:02:07;;;;;;;14.77;8.13;;;16.20;99.90;;;16.06;100.00;101653.25;4202017;28;20091;-77
2021/08/22 00:04:07;;;;;;;15.88;7.32;;;16.20;99.90;;;15.97;100.00;101659.59;4202990;28;20032;-77
2021/08/22 00:06:08;;;;;;;18.58;8.40;;;16.20;99.90;;;16.05;100.00;101656.91;4184889;28;20025;-76
2021/08/22 00:08:12;;;;;;;15.35;7.88;;;16.20;99.90;;;16.02;100.00;101667.88;4185177;28;20119;-76
2021/08/22 00:10:13;;;;;;;16.58;7.53;;;16.20;99.90;;;16.05;100.00;101659.56;4196983;28;20397;-76
2021/08/22 00:12:14;;;;;;;18.45;8.15;;;16.20;99.90;;;16.07;100.00;101664.72;4184964;28;20064;-76
2021/08/22 00:14:15;;;;;;;17.00;7.43;;;16.20;99.90;;;16.13;100.00;101658.72;4201686;28;20032;-76
2021/08/22 00:16:16;;;;;;;16.38;6.95;;;16.30;99.90;;;16.11;100.00;101661.53;4185141;28;20520;-77
2021/08/22 00:18:17;;;;;;;18.33;9.25;;;16.30;99.90;;;16.19;100.00;101669.50;4201844;28;20032;-77
2021/08/22 00:20:20;;;;;;;23.80;8.88;;;16.30;99.90;;;16.06;100.00;101671.88;4201494;28;20585;-77
2021/08/22 00:22:21;;;;;;;20.55;8.43;;;16.40;99.90;;;15.99;100.00;101663.72;4201667;28;20024;-76
2021/08/22 00:24:22;;;;;;;17.98;8.45;;;16.30;99.90;;;16.07;100.00;101675.38;4201803;28;20028;-77
2021/08/22 00:26:23;;;;;;;23.05;8.98;;;16.40;99.90;;;16.04;100.00;101665.88;4201459;28;20031;-76
2021/08/22 00:28:24;;;;;;;20.35;8.50;;;16.30;99.90;;;16.04;100.00;101672.03;4201122;28;20036;-76
2021/08/22 00:30:25;;;;;;;18.95;7.82;;;16.30;99.90;;;16.04;100.00;101665.88;4201456;28;20051;-76
2021/08/22 00:32:26;;;;;;;16.98;8.35;;;16.30;99.90;;;16.02;100.00;101665.22;4202526;28;20051;-76
2021/08/22 00:34:27;;;;;;;15.35;7.25;;;16.30;99.90;;;15.98;100.00;101655.91;4202576;28;20039;-76
2021/08/22 00:36:28;;;;;;;16.70;8.45;;;16.30;99.90;;;15.80;100.00;101657.94;4202337;28;20029;-76
2021/08/22 00:38:31;;;;;;;18.38;7.60;;;16.30;99.90;;;15.97;100.00;101659.59;4202466;28;20037;-76
2021/08/22 00:40:33;;;;;;;16.27;6.82;;;16.20;99.90;;;15.92;100.00;101648.59;4201353;28;20025;-76
2021/08/22 00:42:35;;;;;;;16.33;8.30;;;16.20;99.90;;;15.94;100.00;101654.59;4184431;28;20393;-76
2021/08/22 00:44:36;;;;;;;17.08;8.05;;;16.20;99.90;;;15.79;100.00;101650.94;4201084;28;20033;-76
2021/08/22 00:46:37;;;;;;;17.30;8.27;;;16.10;99.90;;;15.79;100.00;101648.28;4184506;28;20099;-76
2021/08/22 00:48:40;;;;;;;15.65;7.47;;;16.00;99.90;;;15.76;100.00;101652.13;4189499;28;20060;-76
2021/08/22 00:50:41;;;;;;;12.13;8.07;;;16.00;99.90;;;15.84;100.00;101656.59;4201105;28;20025;-76
2021/08/22 00:52:42;;;;;;;13.55;8.18;;;16.00;99.90;;;15.76;100.00;101654.78;4200756;28;20025;-76
2021/08/22 00:54:43;;;;;;;12.57;6.57;;;16.00;99.90;;;15.70;100.00;101658.13;4201161;28;20044;-77
2021/08/22 00:56:44;;;;;;;13.40;6.80;;;16.00;99.90;;;15.74;100.00;101670.06;4202283;28;20028;-76
2021/08/22 00:58:46;;;;;;;16.05;7.75;;;16.00;99.90;;;15.66;100.00;101671.91;4200878;28;20028;-76
2021/08/22 01:00:48;;;;;;;17.08;7.30;;;15.90;99.90;;;15.76;100.00;101667.25;4184266;28;20057;-76
2021/08/22 01:02:52;;;;;;;15.18;7.28;;;15.90;99.90;;;15.74;100.00;101678.03;4184420;28;20025;-76
2021/08/22 01:05:15;;;;;;;12.90;7.80;;;15.90;99.90;;;15.63;100.00;101667.75;4192662;28;20031;-77
2021/08/22 01:07:51;;;;;;;16.23;7.03;;;15.90;99.90;;;15.70;100.00;101673.22;4200799;28;20032;-77
2021/08/22 01:09:52;;;;;;;12.43;6.80;;;15.90;99.90;;;15.66;100.00;101666.56;4184874;28;20025;-77
2021/08/22 01:11:56;;;;;;;20.42;8.65;;;15.90;99.90;;;15.64;100.00;101661.44;4200965;28;20029;-77
2021/08/22 01:14:09;;;;;;;15.63;7.68;;;15.90;99.90;;;15.67;100.00;101678.88;4184140;28;20032;-76
2021/08/22 01:16:12;;;;;;;11.63;6.13;;;15.90;99.90;;;15.65;100.00;101672.91;4200675;28;20035;-77
2021/08/22 01:18:18;;;;;;;12.77;6.00;;;15.90;99.90;;;15.64;100.00;101668.59;4201997;28;20108;-76
2021/08/22 01:20:39;;;;;;;15.45;6.28;;;15.80;99.90;;;15.57;100.00;101664.91;4200839;28;20067;-76
2021/08/22 01:22:41;;;;;;;11.25;5.75;;;15.80;99.90;;;15.48;100.00;101667.56;4184003;28;20481;-77
2021/08/22 01:24:43;;;;;;;11.02;5.88;;;15.80;99.90;;;15.44;100.00;101670.72;4193858;28;20107;-76
2021/08/22 01:26:45;;;;;;;12.52;6.25;;;15.70;99.90;;;15.46;100.00;101666.88;4200687;28;20032;-76
2021/08/22 01:28:48;;;;;;;15.25;7.20;;;15.70;99.90;;;15.56;100.00;101690.66;4200910;28;20024;-76
2021/08/22 01:30:50;;;;;;;14.00;6.90;;;15.70;99.90;;;15.57;100.00;101689.69;4200842;28;20502;-76
2021/08/22 01:32:52;;;;;;;11.82;6.82;;;15.70;99.90;;;15.48;100.00;101672.91;4200692;28;20134;-76
2021/08/22 01:34:54;;;;;;;15.68;6.47;;;15.70;99.90;;;15.52;100.00;101678.72;4200800;28;20029;-77
2021/08/22 01:36:59;;;;;;;14.10;6.85;;;15.70;99.90;;;15.53;100.00;101677.69;4201481;28;20056;-77
2021/08/22 01:39:00;;;;;;;13.98;6.30;;;15.70;99.90;;;15.63;100.00;101677.53;4200414;28;20075;-76
2021/08/22 01:41:02;;;;;;;11.45;5.97;;;15.70;99.90;;;15.53;100.00;101676.91;4200001;28;20502;-76
2021/08/22 01:43:05;;;;;;;13.65;6.32;;;15.70;99.90;;;15.62;100.00;101683.88;4200459;28;20032;-77
2021/08/22 01:45:08;;;;;;;14.05;6.25;;;15.70;99.90;;;15.63;100.00;101682.88;4200897;28;20029;-77
2021/08/22 01:47:10;;;;;;;14.05;6.93;;;15.80;99.90;;;15.65;100.00;101675.56;4200343;28;20036;-76
2021/08/22 01:49:12;;;;;;;13.93;6.05;;;15.70;99.90;;;15.60;100.00;101678.72;4188798;28;20056;-76
2021/08/22 01:51:13;;;;;;;14.43;6.57;;;15.80;99.90;;;15.58;100.00;101687.88;4183276;28;20029;-77
2021/08/22 01:53:14;;;;;;;14.40;5.22;;;15.70;99.90;;;15.48;100.00;101672.91;4183754;28;20033;-76
2021/08/22 01:55:16;;;;;;;16.98;6.53;;;15.70;99.90;;;15.48;100.00;101678.22;4183665;28;20033;-76
2021/08/22 01:57:17;;;;;;;10.70;4.72;;;15.70;99.90;;;15.41;100.00;101677.16;4166988;28;20029;-77
2021/08/22 01:59:19;;;;;;;12.00;5.55;;;15.70;99.90;;;15.46;100.00;101685.50;4184850;28;20116;-77
2021/08/22 02:01:20;;;;;;;9.50;4.97;;;15.70;99.90;;;15.40;100.00;101683.50;4183857;28;20021;-77
2021/08/22 02:03:46;;;;;;;13.98;5.85;;;15.60;99.90;;;15.36;100.00;101694.59;4183845;28;20564;-76
2021/08/22 02:05:51;;;;;;;10.95;5.13;;;15.60;99.90;;;15.33;100.00;101685.13;4183660;28;20100;-77
2021/08/22 02:07:53;;;;;;;11.93;5.63;;;15.60;99.90;;;15.34;100.00;101684.16;4183498;28;20068;-76
2021/08/22 02:10:06;;;;;;;12.20;5.22;;;15.60;99.90;;;15.34;100.00;101685.97;4183769;28;20037;-76
2021/08/22 02:12:16;;;;;;;12.85;6.20;;;15.60;99.90;;;15.38;100.00;101684.66;4196823;28;20031;-77
2021/08/22 02:14:20;;;;;;;14.85;5.18;;;15.60;99.90;;;15.32;100.00;101694.09;4200538;28;20024;-77
2021/08/22 02:16:28;;;;;;;19.85;7.00;;;15.50;99.90;;;15.32;100.00;101696.75;4200536;28;20064;-76
2021/08/22 02:18:30;;;;;;;12.27;5.22;;;15.50;99.90;;;15.31;100.00;101695.13;4183667;28;20037;-77
2021/08/22 02:20:33;;;;;;;9.60;5.25;;;15.50;99.90;;;15.35;100.00;101698.28;4201399;28;20056;-77
2021/08/22 02:22:41;;;;;;;11.02;5.25;;;15.50;99.90;;;15.23;100.00;101694.28;4183336;28;20111;-76
2021/08/22 02:24:42;;;;;;;10.60;5.32;;;15.50;99.90;;;15.38;100.00;101687.31;4200002;28;20122;-77
2021/08/22 02:26:43;;;;;;;10.43;4.68;;;15.50;99.90;;;15.48;100.00;101703.97;4201147;28;20107;-77
2021/08/22 02:28:55;;;;;;;11.80;4.35;;;15.50;99.90;;;15.44;100.00;101702.63;4200059;28;20052;-77
2021/08/22 02:30:57;;;;;;;8.95;5.07;;;15.60;99.90;;;15.45;100.00;101691.81;4201420;28;20067;-77
2021/08/22 02:32:57;;;;;;;12.50;4.68;;;15.60;99.90;;;15.45;100.00;101697.13;4199931;28;20028;-77
2021/08/22 02:34:58;;;;;;;9.55;4.78;;;15.60;99.90;;;15.43;100.00;101700.94;4183337;28;20115;-77
2021/08/22 02:36:59;;;;;;;10.52;4.88;;;15.60;99.90;;;15.49;100.00;101702.97;4199981;28;20036;-77
2021/08/22 02:39:00;;;;;;;11.65;4.95;;;15.60;99.90;;;15.53;100.00;101698.16;4200433;28;20044;-77
2021/08/22 02:41:01;;;;;;;10.63;4.90;;;15.60;99.90;;;15.62;100.00;101698.00;4201286;28;20387;-77
2021/08/22 02:43:03;;;;;;;11.55;5.63;;;15.60;99.90;;;15.73;100.00;101694.19;4201091;28;20025;-77
2021/08/22 02:45:05;;;;;;;10.35;5.57;;;15.70;99.90;;;15.55;100.00;101706.81;4200362;28;20060;-77
2021/08/22 02:47:06;;;;;;;10.65;5.43;;;15.70;99.90;;;15.47;100.00;101691.69;4183305;28;20037;-77
2021/08/22 02:49:07;;;;;;;16.58;5.50;;;15.60;99.90;;;15.47;100.00;101700.47;4188402;28;20404;-77
2021/08/22 02:51:07;;;;;;;12.80;5.40;;;15.60;99.90;;;15.54;100.00;101710.44;4167148;28;20029;-77
2021/08/22 02:53:10;;;;;;;11.75;4.88;;;15.70;99.90;;;15.53;100.00;101704.28;4187724;28;20029;-77
2021/08/22 02:55:10;;;;;;;10.52;5.53;;;15.60;99.90;;;15.40;100.00;101699.44;4186540;28;20025;-77
2021/08/22 02:57:11;;;;;;;10.50;4.63;;;15.60;99.90;;;15.47;100.00;101711.09;4186708;28;20479;-77
2021/08/22 02:59:12;;;;;;;15.05;6.20;;;15.60;99.90;;;15.36;100.00;101706.09;4169712;28;20033;-77
2021/08/22 03:01:13;;;;;;;7.47;4.68;;;15.60;99.90;;;15.25;100.00;101705.56;4186532;28;20500;-77
2021/08/22 03:03:14;;;;;;;15.63;5.30;;;15.50;99.90;;;15.22;100.00;101706.72;4186502;28;20021;-77
2021/08/22 03:05:15;;;;;;;9.60;5.18;;;15.40;99.90;;;15.32;100.00;101709.25;4169655;28;20116;-77
2021/08/22 03:07:16;;;;;;;8.95;5.38;;;15.40;99.90;;;15.26;100.00;101715.22;4185870;28;20079;-77
2021/08/22 03:09:17;;;;;;;10.07;4.50;;;15.40;99.90;;;15.24;100.00;101718.03;4186588;28;20044;-77
2021/08/22 03:11:19;;;;;;;10.07;5.30;;;15.40;99.90;;;15.23;100.00;101704.91;4187502;28;20048;-77
2021/08/22 03:13:19;;;;;;;13.82;5.93;;;15.40;99.90;;;15.19;100.00;101717.69;4186278;28;20029;-77
2021/08/22 03:15:20;;;;;;;11.48;5.03;;;15.40;99.90;;;15.09;100.00;101709.00;4187129;28;20044;-77
2021/08/22 03:17:21;;;;;;;11.93;5.20;;;15.30;99.90;;;15.07;100.00;101711.00;4186257;28;20057;-77
2021/08/22 03:19:22;;;;;;;8.52;4.47;;;15.30;99.90;;;15.09;100.00;101711.66;4186037;28;20040;-77
2021/08/22 03:21:23;;;;;;;12.88;4.95;;;15.30;99.90;;;15.09;100.00;101722.28;4187122;28;20037;-77
2021/08/22 03:23:24;;;;;;;8.30;5.20;;;15.30;99.90;;;15.06;100.00;101716.47;4186128;28;20447;-77
2021/08/22 03:25:25;;;;;;;7.90;4.72;;;15.20;99.90;;;15.12;100.00;101721.97;4186146;28;20021;-77
2021/08/22 03:27:26;;;;;;;12.35;5.55;;;15.30;99.90;;;15.27;100.00;101725.66;4186211;28;20075;-77
2021/08/22 03:29:27;;;;;;;14.27;5.25;;;15.30;99.90;;;15.26;100.00;101723.19;4185959;28;20029;-77
2021/08/22 03:31:28;;;;;;;12.50;4.95;;;15.30;99.90;;;15.17;100.00;101718.84;4185949;28;20025;-77
2021/08/22 03:33:29;;;;;;;10.45;5.18;;;15.30;99.90;;;15.26;100.00;101718.69;4185899;28;20531;-77
2021/08/22 03:35:30;;;;;;;7.70;4.50;;;15.30;99.90;;;15.18;100.00;101718.66;4187158;28;20555;-77
2021/08/22 03:37:31;;;;;;;10.05;4.68;;;15.30;99.90;;;15.17;100.00;101724.16;4185604;28;20118;-77
2021/08/22 03:39:32;;;;;;;9.10;4.40;;;15.30;99.90;;;15.10;100.00;101725.78;4169344;28;20513;-77
2021/08/22 03:41:35;;;;;;;9.15;4.35;;;15.30;99.90;;;15.12;100.00;101724.63;4187950;28;20059;-77
2021/08/22 03:43:36;;;;;;;9.70;4.65;;;15.30;99.90;;;15.18;100.00;101731.94;4185975;28;20104;-77
2021/08/22 03:45:37;;;;;;;7.63;4.10;;;15.30;99.90;;;15.05;100.00;101723.63;4202260;28;20120;-77
2021/08/22 03:47:37;;;;;;;12.00;4.32;;;15.20;99.90;;;14.94;100.00;101726.56;4202062;28;20106;-76
2021/08/22 03:49:38;;;;;;;7.38;4.05;;;15.20;99.90;;;14.96;100.00;101730.72;4188206;28;20025;-77
2021/08/22 03:51:40;;;;;;;9.52;5.13;;;15.20;99.90;;;14.87;100.00;101733.53;4185527;28;20047;-77
2021/08/22 03:53:40;;;;;;;7.70;4.32;;;15.10;99.90;;;14.89;100.00;101731.53;4185772;28;20079;-76
2021/08/22 03:55:44;;;;;;;9.23;4.45;;;15.10;99.90;;;14.85;100.00;101735.47;4186835;28;20488;-77
2021/08/22 03:57:46;;;;;;;7.40;4.25;;;15.10;99.90;;;14.82;100.00;101733.16;4185455;28;20086;-77
2021/08/22 03:59:47;;;;;;;8.02;4.07;;;15.00;99.90;;;14.79;100.00;101725.50;4185980;28;20029;-77
2021/08/22 04:01:48;;;;;;;8.25;4.07;;;15.10;99.90;;;14.83;100.00;101738.31;4168629;28;20029;-77
2021/08/22 04:03:50;;;;;;;8.00;4.68;;;15.00;99.90;;;14.79;100.00;101726.34;4168079;28;20061;-77
2021/08/22 04:05:51;;;;;;;11.82;4.85;;;15.00;99.90;;;14.85;100.00;101743.44;4186355;28;20108;-77
2021/08/22 04:07:54;;;;;;;8.38;4.32;;;15.00;99.90;;;14.82;100.00;101722.50;4185358;28;20543;-77
2021/08/22 04:09:57;;;;;;;7.72;4.35;;;15.00;99.90;;;14.75;100.00;101725.00;4185448;28;20036;-77
2021/08/22 04:11:58;;;;;;;6.22;4.25;;;14.90;99.90;;;14.68;100.00;101721.31;4185196;28;20024;-76
2021/08/22 04:13:59;;;;;;;7.03;4.20;;;14.90;99.90;;;14.71;100.00;101733.44;4186426;28;20035;-76
2021/08/22 04:16:00;;;;;;;7.47;4.15;;;14.90;99.90;;;14.57;100.00;101732.22;4168813;28;20044;-76
2021/08/22 04:18:01;;;;;;;6.00;4.05;;;14.90;99.90;;;14.54;100.00;101735.19;4185402;28;20052;-76
2021/08/22 04:20:03;;;;;;;7.53;4.15;;;14.90;99.90;;;14.44;100.00;101720.34;4185245;28;20021;-76
2021/08/22 04:22:04;;;;;;;9.52;4.00;;;14.80;99.90;;;14.49;100.00;101739.28;4186008;28;20061;-76
2021/08/22 04:24:05;;;;;;;10.77;5.78;;;14.80;99.90;;;14.49;100.00;101724.19;4186627;28;20031;-77
2021/08/22 04:26:09;;;;;;;6.57;3.85;;;14.70;99.90;;;14.60;100.00;101739.03;4185033;28;20060;-77
2021/08/22 04:28:10;;;;;;;;;;;14.80;99.90;;;14.56;100.00;101729.69;4185488;28;20025;-77
2021/08/22 04:30:12;;;;;;;6.45;3.88;;;14.80;99.90;;;14.49;100.00;101728.66;4184753;28;19916;-77
2021/08/22 04:32:13;;;;;;;7.50;3.75;;;14.80;99.90;;;14.49;100.00;101726.00;4186058;28;20029;-77
2021/08/22 04:34:14;;;;;;;8.40;3.40;;;14.80;99.90;;;14.48;100.00;101730.50;4184988;28;20036;-77
2021/08/22 04:36:15;;;;;;;8.48;4.05;;;14.70;99.90;;;14.48;100.00;101727.00;4184749;28;20094;-77
2021/08/22 04:38:16;;;;;;;8.15;3.70;;;14.70;99.90;;;14.46;100.00;101739.59;4185847;28;20503;-77
2021/08/22 04:40:17;;;;;;;7.72;3.67;;;14.70;99.90;;;14.39;100.00;101726.94;4185028;28;20075;-77
2021/08/22 04:42:18;;;;;;;10.20;3.95;;;14.70;99.90;;;14.34;100.00;101731.91;4176497;28;20056;-77
2021/08/22 04:44:19;;;;;;;8.07;4.45;;;14.70;99.90;;;14.34;100.00;101739.03;4197405;28;20033;-77
2021/08/22 04:46:20;;;;;;;5.55;3.88;;;14.70;99.90;;;14.34;100.00;101736.38;4201911;28;20365;-77
2021/08/22 04:48:21;;;;;;;10.70;4.50;;;14.70;99.90;;;14.32;100.00;101731.22;4184068;28;20029;-76
2021/08/22 04:50:22;;;;;;;6.15;3.88;;;14.70;99.90;;;14.36;100.00;101734.41;4192881;28;20094;-76
2021/08/22 04:52:23;;;;;;;6.20;3.28;;;14.70;99.90;;;14.36;100.00;101723.78;4201091;28;20522;-77
2021/08/22 04:54:25;;;;;;;10.02;4.45;;;14.70;99.90;;;14.47;100.00;101739.44;4200942;28;20491;-76
2021/08/22 04:56:26;;;;;;;6.97;3.88;;;14.80;99.90;;;14.56;100.00;101759.75;4184364;28;20036;-77
2021/08/22 04:58:27;;;;;;;9.05;3.47;;;14.90;99.90;;;14.60;100.00;101752.31;4184196;28;20028;-76
2021/08/22 05:00:28;;;;;;;5.72;3.80;;;14.90;99.90;;;14.60;100.00;101758.44;4179362;28;20055;-76
2021/08/22 05:02:29;;;;;;;11.90;4.55;;;14.90;99.90;;;14.60;100.00;101752.31;4200874;28;20028;-77
2021/08/22 05:04:32;;;;;;;8.13;4.57;;;15.00;99.90;;;14.70;100.00;101759.16;4201130;28;20032;-77
2021/08/22 05:06:33;;;;;;;5.25;4.32;;;15.00;99.90;;;14.68;100.00;101757.66;4200840;28;20021;-77
2021/08/22 05:08:33;;;;;;;9.32;4.50;;;15.10;99.90;;;14.74;100.00;101759.69;4200923;28;20052;-77
2021/08/22 05:10:36;;;;;;;8.30;4.90;;;15.10;99.90;;;14.90;100.00;101771.19;4201014;28;20036;-77
2021/08/22 05:12:37;;;;;;;6.72;4.65;;;15.20;99.90;;;14.81;100.00;101760.72;4202488;28;20025;-77
2021/08/22 05:14:37;;;;;;;7.63;3.83;;;15.20;99.90;;;14.88;100.00;101772.34;4200241;28;20044;-77
2021/08/22 05:16:41;;;;;;;5.78;3.63;;;15.20;99.90;;;14.91;100.00;101770.22;4200638;28;20033;-76
2021/08/22 05:18:41;;;;;;;10.25;3.90;;;15.20;99.90;;;14.95;100.00;101770.75;4200657;28;20063;-77
2021/08/22 05:20:42;;;;;;;5.85;4.45;;;15.30;99.90;;;14.98;100.00;101770.41;4202225;28;20028;-77
2021/08/22 05:22:43;;;;;;;11.63;4.30;;;15.40;99.90;;;15.03;100.00;101775.25;4200635;28;20021;-76
2021/08/22 05:24:44;;;;;;;8.13;4.22;;;15.40;99.90;;;15.03;100.00;101770.75;4200807;28;20032;-77
2021/08/22 05:26:45;;;;;;;7.93;4.22;;;15.40;99.90;;;15.06;100.00;101770.44;4201948;28;20503;-77
2021/08/22 05:28:46;;;;;;;7.95;3.75;;;15.40;99.90;;;15.03;100.00;101767.28;4201086;28;20082;-77
2021/08/22 05:30:47;;;;;;;8.85;4.35;;;15.40;99.90;;;15.05;100.00;101774.13;4201751;28;20036;-77
2021/08/22 05:32:48;;;;;;;6.13;3.50;;;15.40;99.90;;;15.05;100.00;101763.50;4183839;28;20025;-77
2021/08/22 05:34:49;;;;;;;7.22;4.68;;;15.50;99.90;;;15.07;100.00;101772.13;4201734;28;20036;-76
2021/08/22 05:36:50;;;;;;;8.27;4.15;;;15.50;99.90;;;15.11;100.00;101783.28;4201679;28;20086;-76
2021/08/22 05:38:55;;;;;;;8.63;4.47;;;15.50;99.90;;;15.15;100.00;101779.28;4200193;28;20063;-77
2021/08/22 05:40:56;;;;;;;7.80;4.43;;;15.50;99.90;;;15.13;100.00;101771.47;4200473;28;20020;-77
2021/08/22 05:42:57;;;;;;;9.35;4.43;;;15.50;99.90;;;15.15;100.00;101769.50;4183800;28;20017;-77
2021/08/22 05:44:58;;;;;;;8.02;3.75;;;15.60;99.90;;;15.25;100.00;101791.47;4202009;28;20025;-77
2021/08/22 05:46:59;;;;;;;5.57;4.03;;;15.60;99.90;;;15.20;100.00;101779.66;4200489;28;20110;-76
2021/08/22 05:49:00;;;;;;;8.45;3.95;;;15.60;99.90;;;15.22;100.00;101794.44;4191176;28;20035;-77
2021/08/22 05:51:01;;;;;;;8.57;4.15;;;15.60;99.90;;;15.24;100.00;101789.78;4183664;28;20039;-76
2021/08/22 05:53:02;;;;;;;6.75;3.75;;;15.60;99.90;;;15.34;100.00;101798.47;4185250;28;20025;-76
2021/08/22 05:55:09;;;;;;;11.00;4.63;;;15.60;99.90;;;15.35;100.00;101805.44;4183876;28;20029;-76
2021/08/22 05:57:10;;;;;;;8.45;4.50;;;15.70;99.90;;;15.44;100.00;101807.13;4183665;28;20024;-76
2021/08/22 05:59:11;;;;;;;11.75;4.60;;;15.70;99.90;;;15.46;100.00;101812.31;4184819;28;20489;-77
2021/08/22 06:01:12;;;;;;;6.63;4.32;;;15.80;99.90;;;15.43;100.00;101805.47;4185167;28;20014;-76
2021/08/22 06:03:13;;;;;;;8.45;4.72;;;15.80;99.90;;;15.40;100.00;101805.81;4183933;28;20454;-76
2021/08/22 06:05:14;;;;;;;8.55;5.10;;;15.80;99.90;;;15.43;100.00;101805.47;4184972;28;20029;-77
2021/08/22 06:07:20;;;;;;;7.10;4.38;;;15.80;99.90;;;15.48;100.00;101813.00;4183548;28;20032;-77
2021/08/22 06:09:22;;;;;;;9.88;4.05;;;15.90;99.90;;;15.46;100.00;101815.78;4167808;28;20060;-76
2021/08/22 06:11:23;;;;;;;9.63;4.72;;;15.90;99.90;;;15.40;100.00;101813.78;4175051;28;20040;-77
2021/08/22 06:13:24;;;;;;;9.68;4.18;;;15.90;99.90;;;15.43;100.00;101821.44;4194613;28;20025;-77
2021/08/22 06:15:25;;;;;;;4.78;3.45;;;15.90;99.90;;;15.43;100.00;101816.13;4200296;28;20084;-77
2021/08/22 06:17:27;;;;;;;7.80;3.83;;;15.90;99.90;;;15.49;100.00;101823.47;4200280;28;20118;-77
2021/08/22 06:19:27;;;;;;;7.28;3.42;;;16.00;99.90;;;15.56;100.00;101820.19;4200492;28;20479;-77
2021/08/22 06:21:28;;;;;;;7.35;4.05;;;16.00;99.90;;;15.63;100.00;101831.81;4200116;28;20032;-77
2021/08/22 06:23:29;;;;;;;7.00;3.72;;;16.10;99.90;;;15.61;100.00;101832.00;4200105;28;20489;-77
2021/08/22 06:25:30;;;;;;;6.53;4.47;;;16.10;99.90;;;15.68;100.00;101825.00;4199196;28;20515;-77
2021/08/22 06:27:31;;;;;;;7.43;3.60;;;16.20;99.90;;;15.71;100.00;101821.22;4202755;28;20024;-77
2021/08/22 06:29:32;;;;;;;5.35;4.35;;;16.20;99.90;;;15.80;100.00;101822.91;4203791;28;20036;-77
2021/08/22 06:31:33;;;;;;;6.03;4.18;;;16.30;99.90;;;15.79;100.00;101827.38;4186787;28;20400;-77
2021/08/22 06:33:34;;;;;;;7.88;4.95;;;16.40;99.90;;;15.78;100.00;101831.03;4186697;28;20028;-77
2021/08/22 06:35:35;;;;;;;7.88;4.35;;;16.40;99.90;;;15.86;100.00;101838.22;4203504;28;20059;-77
2021/08/22 06:37:38;;;;;;;6.63;4.43;;;16.50;99.90;;;15.88;100.00;101830.88;4203053;28;20052;-77
2021/08/22 06:39:41;;;;;;;5.30;3.83;;;16.50;99.90;;;15.99;100.00;101833.22;4186677;28;20029;-77
2021/08/22 06:41:42;;;;;;;5.10;3.20;;;16.60;99.90;;;16.00;100.00;101834.91;4190349;28;20305;-77
2021/08/22 06:43:43;;;;;;;7.95;3.95;;;16.60;99.90;;;16.06;100.00;101834.25;4193423;28;20028;-77
2021/08/22 06:45:44;;;;;;;7.95;3.90;;;16.70;99.90;;;16.14;100.00;101830.75;4203232;28;20052;-77
2021/08/22 06:47:48;;;;;;;11.07;4.60;;;16.70;99.90;;;16.26;100.00;101838.25;4204058;28;20403;-77
2021/08/22 06:49:50;;;;;;;6.43;4.13;;;16.80;99.90;;;16.34;100.00;101832.06;4186761;28;20503;-77
2021/08/22 06:51:51;;;;;;;5.88;3.80;;;16.90;99.90;;;16.43;100.00;101841.72;4169941;28;20060;-77
2021/08/22 06:53:52;;;;;;;9.20;4.20;;;17.00;99.90;;;16.53;100.00;101843.22;4186641;28;20420;-77
2021/08/22 06:55:53;;;;;;;10.57;3.92;;;17.10;99.90;;;16.61;100.00;101844.25;4186448;28;20079;-77
2021/08/22 06:57:54;;;;;;;9.18;4.70;;;17.10;99.90;;;16.66;100.00;101850.75;4173334;28;20021;-77
2021/08/22 06:59:55;;;;;;;8.32;3.67;;;17.10;99.90;;;16.72;100.00;101843.91;4176628;28;20408;-77
2021/08/22 07:01:56;;;;;;;6.47;3.70;;;17.20;99.90;;;16.70;100.00;101844.06;4186393;28;20110;-77
2021/08/22 07:03:57;;;;;;;5.63;5.00;;;17.20;99.90;;;16.65;100.00;101848.22;4199727;28;20468;-77
2021/08/22 07:05:58;;;;;;;6.20;3.95;;;17.30;99.90;;;16.65;100.00;101850.88;4202790;28;20028;-77
2021/08/22 07:07:59;;;;;;;7.00;3.90;;;17.30;99.90;;;16.66;100.00;101857.91;4202931;28;20067;-77
2021/08/22 07:10:00;;;;;;;6.38;3.65;;;17.30;99.90;;;16.83;100.00;101859.53;4202932;28;20446;-77
2021/08/22 07:12:01;;;;;;;4.72;3.78;;;17.30;99.90;;;16.83;100.00;101851.53;4186220;28;20036;-77
2021/08/22 07:14:02;;;;;;;9.48;3.47;;;17.40;99.90;;;16.85;100.00;101854.84;4202807;28;20029;-77
2021/08/22 07:16:03;;;;;;;7.75;4.03;;;17.40;99.90;;;17.00;100.00;101866.47;4204131;28;20080;-77
2021/08/22 07:18:04;;;;;;;7.63;3.90;;;17.50;99.90;;;17.07;100.00;101862.13;4202688;28;20547;-78
2021/08/22 07:20:06;;;;;;;6.63;4.22;;;17.60;99.90;;;16.96;100.00;101866.00;4202683;28;20032;-77
2021/08/22 07:22:07;;;;;;;9.48;4.70;;;17.60;99.90;;;16.94;100.00;101862.66;4202291;28;20067;-77
2021/08/22 07:24:08;;;;;;;7.28;4.05;;;17.70;99.90;;;17.04;100.00;101862.47;4202842;28;20384;-77
2021/08/22 07:26:10;;;;;;;7.80;4.30;;;17.70;99.90;;;17.07;100.00;101867.47;4203863;28;20028;-78
2021/08/22 07:28:10;;;;;;;8.98;4.80;;;17.80;99.90;;;17.17;100.00;101862.78;4185864;28;20025;-77
2021/08/22 07:30:12;;;;;;;8.57;4.63;;;17.80;99.90;;;17.14;100.00;101868.47;4185827;28;20075;-77
2021/08/22 07:32:13;;;;;;;12.65;4.68;;;17.90;99.90;;;17.00;100.00;101866.47;4191730;28;20028;-78
2021/08/22 07:34:14;;;;;;;10.07;5.20;;;17.80;99.90;;;17.18;100.00;101875.09;4202623;28;20546;-78
2021/08/22 07:36:15;;;;;;;9.00;4.80;;;17.90;99.90;;;17.23;99.79;101872.78;4202256;28;20036;-77
2021/08/22 07:38:16;;;;;;;10.77;4.55;;;17.90;99.90;;;16.95;99.79;101866.16;4184657;28;20060;-78
2021/08/22 07:40:17;;;;;;;10.68;4.80;;;17.90;99.90;;;17.13;100.00;101877.47;4202549;28;20504;-77
2021/08/22 07:42:18;;;;;;;6.45;4.53;;;17.90;99.90;;;17.10;100.00;101869.78;4203609;28;20066;-77
2021/08/22 07:44:21;;;;;;;6.15;4.15;;;17.90;99.90;;;17.13;99.97;101878.28;4202214;28;20029;-77
2021/08/22 07:46:21;;;;;;;7.88;4.78;;;17.90;99.90;;;17.20;100.00;101867.78;4201993;28;20414;-78
2021/08/22 07:48:22;;;;;;;6.10;4.53;;;17.90;99.90;;;17.17;100.00;101884.13;4180852;28;20030;-77
2021/08/22 07:50:23;;;;;;;8.80;4.35;;;18.00;99.90;;;17.12;100.00;101873.13;4195079;28;20438;-78
2021/08/22 07:52:24;;;;;;;6.50;4.35;;;18.00;99.90;;;17.15;100.00;101876.28;4202009;28;20519;-78
2021/08/22 07:54:25;;;;;;;6.47;4.45;;;18.10;99.90;;;17.31;100.00;101870.06;4185301;28;20025;-77
2021/08/22 07:56:26;;;;;;;8.35;4.70;;;18.20;99.90;;;17.07;99.39;101873.63;4203369;28;20131;-78
2021/08/22 07:58:27;;;;;;;7.38;4.53;;;18.20;99.90;;;17.29;100.00;101884.56;4201990;28;20429;-78
2021/08/22 08:00:28;;;;;;;6.82;4.63;;;18.20;99.90;;;17.12;99.70;101887.28;4203220;28;20113;-77
2021/08/22 08:02:29;;;;;;;8.43;3.97;;;18.10;99.90;;;17.27;99.96;101892.72;4203046;28;20032;-78
2021/08/22 08:04:30;;;;;;;6.97;4.88;;;18.10;99.90;;;17.07;100.00;101883.47;4203355;28;20028;-77
2021/08/22 08:06:31;;;;;;;6.45;3.92;;;18.10;99.90;;;17.08;100.00;101893.94;4185238;28;20028;-77
2021/08/22 08:08:32;;;;;;;6.38;4.03;;;18.10;99.90;;;17.24;100.00;101890.41;4196028;28;20103;-78
2021/08/22 08:10:33;;;;;;;8.90;4.15;;;18.00;99.90;;;17.21;99.82;101885.41;4202026;28;20033;-78
2021/08/22 08:12:34;;;;;;;6.25;4.13;;;18.00;99.90;;;17.26;99.63;101899.09;4203534;28;20028;-78
2021/08/22 08:14:35;;;;;;;7.68;4.13;;;18.00;99.90;;;17.23;99.00;101893.25;4201925;28;20054;-77
2021/08/22 08:16:36;;;;;;;6.82;3.83;;;18.00;99.90;;;17.35;99.40;101900.69;4202908;28;20067;-77
2021/08/22 08:18:37;;;;;;;8.40;4.53;;;18.10;99.90;;;17.41;99.94;101894.69;4201610;28;20033;-77